^^
Datos históricos de la estación: Murcia-Puente Tocinos
Diario Informe para Diciembre 22, 2019 Unidades:  Métrico    Ingés   Ambas
Diario Semanal Mensual Anual
  Máxima: Mínima: Promedio:
Temperatura: 22.9 °C 14.8 °C 19.6 °C
Punto de rocio: 6.7 °C 2.3 °C 4.5 °C
Humedad: 55% 27% 38%
Velocidad viento: 23.7km/h 2.2km/h 12.2km/h
Racha viento: 48.3km/h - -
Viento- - SSO
Presión: 1020.1 hPa 1009.1 hPa -
Precipitación: 0.0 mm    
 
 
Tabla de datos para Diciembre 22, 2019
Hora Temperatura Punto de rocio Presión Viento Velocidad viento Racha viento Humedad Intensidad lluvia(por hora) Nubes
00:04 21.5 °C 4.6 °C 1009.2 hPa SO 18.8 km/h 38.9 km/h 33% 0.0 mm
00:09 21.6 °C 4.3 °C 1009.4 hPa SO 19 km/h 38.6 km/h 32.2% 0.0 mm
00:14 21.6 °C 4.2 °C 1009.4 hPa SO 20.7 km/h 46.7 km/h 32% 0.0 mm
00:19 21.7 °C 4.2 °C 1009.4 hPa SO 21.7 km/h 46.7 km/h 32% 0.0 mm
00:24 21.6 °C 4.1 °C 1009.4 hPa SO 22.9 km/h 38.9 km/h 32% 0.0 mm
00:29 21.4 °C 3.9 °C 1009.2 hPa SO 23.7 km/h 44.4 km/h 31.8% 0.0 mm
00:34 21.4 °C 3.6 °C 1009.2 hPa SO 23.7 km/h 45.1 km/h 31% 0.0 mm
00:39 21.4 °C 3.6 °C 1009.2 hPa SO 23.7 km/h 41.8 km/h 31% 0.0 mm
00:44 21.4 °C 3.6 °C 1009.1 hPa SO 21.5 km/h 35.4 km/h 31% 0.0 mm
00:49 21.3 °C 3.5 °C 1009.1 hPa SO 20.1 km/h 36.2 km/h 31% 0.0 mm
00:54 21.3 °C 3.5 °C 1009.2 hPa SO 20.6 km/h 42.6 km/h 31% 0.0 mm
00:59 21.3 °C 3.5 °C 1009.2 hPa SO 20.9 km/h 41.8 km/h 31% 0.0 mm
01:04 21.3 °C 3.5 °C 1009.2 hPa SO 19.2 km/h 35.9 km/h 31% 0.0 mm
01:09 21.2 °C 3.4 °C 1009.3 hPa SO 18.4 km/h 37 km/h 31% 0.0 mm
01:14 21.3 °C 3.5 °C 1009.3 hPa SO 19.5 km/h 38.9 km/h 31% 0.0 mm
01:19 21.2 °C 3.4 °C 1009.3 hPa SO 20.1 km/h 38.6 km/h 31% 0.0 mm
01:24 21.2 °C 3.3 °C 1009.7 hPa SO 20.1 km/h 33.8 km/h 31% 0.0 mm
01:29 21 °C 3.2 °C 1009.7 hPa OSO 20.1 km/h 29.1 km/h 31% 0.0 mm
01:34 20.8 °C 3.5 °C 1009.7 hPa SO 17.6 km/h 29.6 km/h 32% 0.0 mm
01:39 20.7 °C 3.4 °C 1010.0 hPa OSO 16.1 km/h 27.4 km/h 32% 0.0 mm
01:44 20.7 °C 3.2 °C 1010.0 hPa SO 15.8 km/h 38.9 km/h 31.7% 0.0 mm
01:49 20.8 °C 3 °C 1010.0 hPa OSO 15.6 km/h 44.4 km/h 31% 0.0 mm
01:54 20.7 °C 3.1 °C 1010.0 hPa SO 18.4 km/h 45.1 km/h 31.2% 0.0 mm
01:59 20.6 °C 3.3 °C 1009.9 hPa SO 20.1 km/h 32.2 km/h 32% 0.0 mm
02:04 20.4 °C 3.2 °C 1009.9 hPa SO 17.7 km/h 30.6 km/h 32% 0.0 mm
02:09 20.3 °C 3.1 °C 1009.9 hPa SO 16.4 km/h 34.3 km/h 32% 0.0 mm
02:14 20.4 °C 3.2 °C 1009.9 hPa SO 16.4 km/h 33.8 km/h 32% 0.0 mm
02:19 20.4 °C 3.2 °C 1009.9 hPa SO 16.4 km/h 29.8 km/h 32% 0.0 mm
02:24 20.4 °C 3.2 °C 1009.9 hPa SO 16.9 km/h 30.6 km/h 32.2% 0.0 mm
02:29 20.3 °C 3.5 °C 1009.8 hPa SO 17.2 km/h 28.6 km/h 33% 0.0 mm
02:34 20.3 °C 3.4 °C 1009.8 hPa SO 16.5 km/h 35.2 km/h 33% 0.0 mm
02:39 20.2 °C 3.4 °C 1010.0 hPa SO 16.1 km/h 37 km/h 32.9% 0.0 mm
02:44 20.2 °C 3.4 °C 1010.0 hPa SO 19.2 km/h 37 km/h 33% 0.0 mm
02:49 20.2 °C 3.4 °C 1010.0 hPa SO 20.9 km/h 33.8 km/h 33% 0.0 mm
02:54 20.1 °C 3.3 °C 1010.3 hPa SO 19.4 km/h 37.8 km/h 33% 0.0 mm
02:59 20.2 °C 3.4 °C 1010.3 hPa SO 18.4 km/h 37 km/h 33% 0.0 mm
03:04 20.1 °C 3.3 °C 1010.3 hPa SO 18.1 km/h 30.6 km/h 33% 0.0 mm
03:09 20 °C 3.2 °C 1010.5 hPa SO 18 km/h 31.7 km/h 33% 0.0 mm
03:14 19.8 °C 3.4 °C 1010.5 hPa SSO 16 km/h 32.2 km/h 33.8% 0.0 mm
03:19 19.7 °C 3.4 °C 1010.5 hPa SO 14.8 km/h 37.8 km/h 34% 0.0 mm
03:24 19.7 °C 3.3 °C 1010.8 hPa SO 16.9 km/h 41.2 km/h 33.7% 0.0 mm
03:29 19.8 °C 3.1 °C 1010.8 hPa SO 18.4 km/h 41.8 km/h 33% 0.0 mm
03:34 19.8 °C 3.1 °C 1010.8 hPa SO 18.2 km/h 42.6 km/h 33% 0.0 mm
03:39 19.9 °C 3.1 °C 1011.0 hPa SO 18 km/h 41.8 km/h 33% 0.0 mm
03:44 19.9 °C 3.1 °C 1011.0 hPa SO 17.1 km/h 32.2 km/h 33% 0.0 mm
03:49 19.8 °C 3 °C 1011.0 hPa SO 16.4 km/h 30.9 km/h 33% 0.0 mm
03:54 19.7 °C 2.9 °C 1011.2 hPa SO 14.7 km/h 32.2 km/h 33% 0.0 mm
03:59 19.7 °C 3.2 °C 1011.2 hPa SO 13.7 km/h 32.2 km/h 33.8% 0.0 mm
04:04 19.5 °C 3.2 °C 1011.2 hPa SO 13.3 km/h 24.5 km/h 34% 0.0 mm
04:09 19.4 °C 3.1 °C 1011.4 hPa SO 13 km/h 29.6 km/h 34% 0.0 mm
04:14 19.4 °C 3.1 °C 1011.4 hPa SO 13.4 km/h 29 km/h 34% 0.0 mm
04:19 19.3 °C 3 °C 1011.4 hPa SO 13.7 km/h 25.7 km/h 34% 0.0 mm
04:24 19.2 °C 3.2 °C 1011.7 hPa SO 12.8 km/h 24.1 km/h 34.7% 0.0 mm
04:29 19.2 °C 3.2 °C 1011.7 hPa SO 12.2 km/h 22.2 km/h 34.7% 0.0 mm
04:34 19.2 °C 3.3 °C 1011.7 hPa SO 11 km/h 22.5 km/h 35% 0.0 mm
04:39 19.1 °C 3.3 °C 1011.9 hPa SO 10.3 km/h 19.3 km/h 35% 0.0 mm
04:44 19 °C 3.1 °C 1011.9 hPa OSO 9.4 km/h 14.8 km/h 35% 0.0 mm
04:49 18.9 °C 3.1 °C 1011.9 hPa SO 8.7 km/h 18.5 km/h 35% 0.0 mm
04:54 18.9 °C 3.1 °C 1012.0 hPa OSO 9.5 km/h 19.3 km/h 35% 0.0 mm
04:59 18.9 °C 3.1 °C 1012.0 hPa Oeste 10 km/h 19.3 km/h 35% 0.0 mm
05:04 18.8 °C 3.2 °C 1012.0 hPa ONO 7.6 km/h 9.7 km/h 35.4% 0.0 mm
05:09 18.7 °C 3.3 °C 1012.0 hPa ONO 6.5 km/h 8 km/h 36% 0.0 mm
05:14 18.5 °C 3.2 °C 1012.0 hPa NE 4.9 km/h 8.4 km/h 36.3% 0.0 mm
05:19 18.2 °C 3.3 °C 1012.0 hPa NE 3.9 km/h 8.4 km/h 37% 0.0 mm
05:24 17.9 °C 3.4 °C 1012.4 hPa NE 4.6 km/h 8 km/h 38% 0.0 mm
05:29 17.7 °C 3.4 °C 1012.4 hPa SE 5 km/h 8.4 km/h 38.8% 0.0 mm
05:34 17.4 °C 3.3 °C 1012.4 hPa Sur 3.9 km/h 8 km/h 39% 0.0 mm
05:39 17.3 °C 3.2 °C 1012.4 hPa Sur 3.2 km/h 4.8 km/h 39% 0.0 mm
05:44 17.3 °C 3.2 °C 1012.4 hPa Sur 2.6 km/h 8.4 km/h 39% 0.0 mm
05:49 17.4 °C 3.3 °C 1012.4 hPa SSO 2.2 km/h 13 km/h 39% 0.0 mm
05:54 17.7 °C 3.5 °C 1012.5 hPa SSO 4.4 km/h 13.7 km/h 38.7% 0.0 mm
05:59 17.9 °C 3.4 °C 1012.5 hPa SSO 5.8 km/h 14.5 km/h 38% 0.0 mm
06:04 17.9 °C 3.5 °C 1012.5 hPa Sur 6.5 km/h 9.7 km/h 38.4% 0.0 mm
06:09 17.8 °C 3.6 °C 1012.9 hPa SSO 6.9 km/h 11.1 km/h 38.7% 0.0 mm
06:14 17.9 °C 3.6 °C 1012.9 hPa SO 6.2 km/h 13.7 km/h 38.7% 0.0 mm
06:19 17.9 °C 3.5 °C 1012.9 hPa SO 5.8 km/h 15.6 km/h 38.1% 0.0 mm
06:24 17.9 °C 3.4 °C 1013.0 hPa SO 8.1 km/h 16.1 km/h 38% 0.0 mm
06:29 17.9 °C 3.4 °C 1013.0 hPa SO 9.5 km/h 16.7 km/h 38.1% 0.0 mm
06:34 18 °C 3.4 °C 1013.0 hPa SO 8.8 km/h 16.7 km/h 38% 0.0 mm
06:39 18 °C 3.4 °C 1013.2 hPa SO 8.4 km/h 14.5 km/h 38% 0.0 mm
06:44 18 °C 3.5 °C 1013.2 hPa SO 7.9 km/h 11.3 km/h 38% 0.0 mm
06:49 18 °C 3.4 °C 1013.2 hPa SO 7.6 km/h 11.3 km/h 38% 0.0 mm
06:54 18 °C 3.4 °C 1013.5 hPa SO 6.5 km/h 11.3 km/h 38% 0.0 mm
06:59 17.9 °C 3.4 °C 1013.5 hPa SO 5.8 km/h 11.3 km/h 38% 0.0 mm
07:04 17.9 °C 3.4 °C 1013.5 hPa SSO 6.2 km/h 11.3 km/h 38.1% 0.0 mm
07:09 17.8 °C 3.7 °C 1014.1 hPa SSO 6.5 km/h 11.3 km/h 38.9% 0.0 mm
07:14 17.6 °C 3.8 °C 1014.1 hPa SSE 5.6 km/h 11.9 km/h 39.7% 0.0 mm
07:19 17.3 °C 3.7 °C 1014.1 hPa SSO 5 km/h 19 km/h 40.4% 0.0 mm
07:24 17.2 °C 3.8 °C 1014.4 hPa Sur 6.6 km/h 19.3 km/h 41% 0.0 mm
07:29 17.1 °C 3.7 °C 1014.4 hPa SSE 7.6 km/h 19.8 km/h 41% 0.0 mm
07:34 16.9 °C 3.6 °C 1014.4 hPa Sur 10.3 km/h 20.9 km/h 41% 0.0 mm
07:39 16.9 °C 3.8 °C 1014.7 hPa Sur 11.9 km/h 20.9 km/h 41.6% 0.0 mm
07:44 16.9 °C 3.8 °C 1014.7 hPa Sur 11.9 km/h 16.7 km/h 41.8% 0.0 mm
07:49 16.9 °C 3.9 °C 1014.7 hPa Sur 11.9 km/h 17.2 km/h 42% 0.0 mm
07:54 16.9 °C 3.9 °C 1015.1 hPa Sur 11.4 km/h 17.7 km/h 42% 0.0 mm
07:59 17.1 °C 3.9 °C 1015.1 hPa SSO 11.1 km/h 18.5 km/h 41.6% 0.0 mm
08:04 17.5 °C 4 °C 1015.1 hPa Sur 11.6 km/h 19.3 km/h 40.8% 0.0 mm
08:09 17.4 °C 3.9 °C 1015.3 hPa SSE 11.9 km/h 16.1 km/h 40.5% 0.0 mm
08:14 17.1 °C 3.9 °C 1015.3 hPa SSE 10.4 km/h 14.8 km/h 41.4% 0.0 mm
08:19 16.8 °C 3.8 °C 1015.3 hPa SE 9.5 km/h 14.5 km/h 42% 0.0 mm
08:24 16.7 °C 4 °C 1015.5 hPa SSE 8.8 km/h 12.9 km/h 42.7% 0.0 mm
08:29 16.8 °C 4.1 °C 1015.5 hPa SSO 8.4 km/h 11.3 km/h 42.9% 0.0 mm
08:34 16.9 °C 3.9 °C 1015.5 hPa SSE 7.9 km/h 11.3 km/h 42% 0.0 mm
08:39 16.9 °C 3.9 °C 1015.8 hPa SE 7.6 km/h 9.7 km/h 42.2% 0.0 mm
08:44 16.8 °C 4.1 °C 1015.8 hPa SE 6.5 km/h 8.7 km/h 42.6% 0.0 mm
08:49 17 °C 4 °C 1015.8 hPa SSE 5.8 km/h 13 km/h 42.1% 0.0 mm
08:54 17.1 °C 4.1 °C 1015.9 hPa Sur 6.5 km/h 12.9 km/h 42% 0.0 mm
08:59 17.2 °C 4.2 °C 1015.9 hPa SO 6.9 km/h 16.7 km/h 42% 0.0 mm
09:04 17.2 °C 4.2 °C 1015.9 hPa Sur 8.1 km/h 16.1 km/h 42.2% 0.0 mm
09:09 17 °C 4.3 °C 1016.2 hPa Sur 8.7 km/h 13 km/h 43% 0.0 mm
09:14 16.8 °C 4.4 °C 1016.2 hPa SSO 9.2 km/h 16.4 km/h 43.9% 0.0 mm
09:19 16.8 °C 4.5 °C 1016.2 hPa SSO 9.5 km/h 16.7 km/h 44% 0.0 mm
09:24 16.9 °C 4.5 °C 1016.4 hPa SSO 9.8 km/h 16.1 km/h 44% 0.0 mm
09:29 16.9 °C 4.6 °C 1016.4 hPa SSO 10 km/h 22 km/h 44% 0.0 mm
09:34 17.1 °C 4.7 °C 1016.4 hPa SSO 11.4 km/h 22.5 km/h 44% 0.0 mm
09:39 17.1 °C 4.8 °C 1016.8 hPa SO 12.2 km/h 20.9 km/h 44% 0.0 mm
09:44 17.2 °C 4.8 °C 1016.8 hPa SSO 11.6 km/h 22.2 km/h 44% 0.0 mm
09:49 17.3 °C 5 °C 1016.8 hPa SSO 11.1 km/h 22.5 km/h 44% 0.0 mm
09:54 17.4 °C 5 °C 1017.0 hPa SSO 11.1 km/h 20.9 km/h 44% 0.0 mm
09:59 17.6 °C 5 °C 1017.0 hPa SSO 11.1 km/h 24.5 km/h 43.5% 0.0 mm
10:04 17.8 °C 5 °C 1017.0 hPa SSO 11.6 km/h 24.1 km/h 43% 0.0 mm
10:09 18 °C 5.2 °C 1017.1 hPa SSO 11.9 km/h 24.1 km/h 42.8% 0.0 mm
10:14 18.2 °C 5.1 °C 1017.1 hPa SO 11.9 km/h 19.3 km/h 42.2% 0.0 mm
10:19 18.3 °C 5.2 °C 1017.1 hPa SO 11.9 km/h 20.9 km/h 42% 0.0 mm
10:24 18.6 °C 5.2 °C 1017.3 hPa SO 10.9 km/h 20.9 km/h 41.4% 0.0 mm
10:29 18.8 °C 5.3 °C 1017.3 hPa SO 10.3 km/h 20.9 km/h 41% 0.0 mm
10:34 18.9 °C 5.4 °C 1017.3 hPa SO 10.8 km/h 21.7 km/h 41% 0.0 mm
10:39 19.1 °C 5.5 °C 1017.5 hPa SO 11.1 km/h 22.5 km/h 40.9% 0.0 mm
10:44 19.2 °C 5.3 °C 1017.5 hPa SO 10.6 km/h 20.4 km/h 40.1% 0.0 mm
10:49 19.3 °C 5.4 °C 1017.5 hPa SO 10.3 km/h 20.9 km/h 40% 0.0 mm
10:54 19.4 °C 5.5 °C 1017.5 hPa SO 10.8 km/h 17.2 km/h 40% 0.0 mm
10:59 19.7 °C 5.6 °C 1017.5 hPa SO 11.1 km/h 22 km/h 39.8% 0.0 mm
11:04 19.8 °C 5.5 °C 1017.5 hPa SSO 10.6 km/h 25.6 km/h 39.1% 0.0 mm
11:09 20 °C 5.2 °C 1017.6 hPa SSO 10.3 km/h 25.9 km/h 38% 0.0 mm
11:14 20.2 °C 5.3 °C 1017.6 hPa SO 10.8 km/h 20.9 km/h 37.8% 0.0 mm
11:19 20.2 °C 5.3 °C 1017.6 hPa SSO 11.1 km/h 22.5 km/h 37.5% 0.0 mm
11:24 20.2 °C 5.5 °C 1017.7 hPa SSO 11.8 km/h 22.5 km/h 38% 0.0 mm
11:29 20.2 °C 5.5 °C 1017.7 hPa SO 12.2 km/h 22.5 km/h 38% 0.0 mm
11:34 20.3 °C 5.5 °C 1017.7 hPa SO 13.1 km/h 29.6 km/h 38.2% 0.0 mm
11:39 20.3 °C 5.9 °C 1017.7 hPa SSO 13.7 km/h 29 km/h 38.9% 0.0 mm
11:44 20.4 °C 5.6 °C 1017.7 hPa SSO 13.9 km/h 24.5 km/h 38.1% 0.0 mm
11:49 20.4 °C 5.6 °C 1017.7 hPa SO 14 km/h 29.8 km/h 38% 0.0 mm
11:54 20.6 °C 5.8 °C 1017.7 hPa SO 15 km/h 30.6 km/h 38% 0.0 mm
11:59 20.7 °C 5.8 °C 1017.6 hPa SO 15.6 km/h 32.8 km/h 38% 0.0 mm
12:04 20.7 °C 5.9 °C 1017.6 hPa SO 15.9 km/h 33.8 km/h 38.1% 0.0 mm
12:09 20.7 °C 6.1 °C 1017.6 hPa SSO 16.1 km/h 29 km/h 38.7% 0.0 mm
12:14 20.8 °C 6 °C 1017.4 hPa SSO 14.8 km/h 29.8 km/h 38.3% 0.0 mm
12:19 20.8 °C 6.4 °C 1017.4 hPa SSO 14 km/h 30.6 km/h 39% 0.0 mm
12:24 20.9 °C 6.4 °C 1017.4 hPa SSO 15.5 km/h 29 km/h 39% 0.0 mm
12:29 21.1 °C 6.6 °C 1017.3 hPa SSO 16.4 km/h 27.4 km/h 39% 0.0 mm
12:34 21.2 °C 6.6 °C 1017.3 hPa SSO 14.3 km/h 29.1 km/h 38.7% 0.0 mm
12:39 21.1 °C 6.3 °C 1017.3 hPa SSO 13 km/h 33.3 km/h 38.3% 0.0 mm
12:44 21.1 °C 6.5 °C 1017.1 hPa SSO 15.1 km/h 33.8 km/h 38.7% 0.0 mm
12:49 21.2 °C 6.6 °C 1017.1 hPa SSO 16.4 km/h 33.8 km/h 38.7% 0.0 mm
12:54 21.3 °C 6.6 °C 1017.1 hPa SSO 16.2 km/h 30.6 km/h 38.6% 0.0 mm
12:59 21.4 °C 6.5 °C 1016.7 hPa SSO 16.1 km/h 32.8 km/h 38% 0.0 mm
13:04 21.4 °C 6.5 °C 1016.7 hPa SSO 18 km/h 33.8 km/h 38% 0.0 mm
13:09 21.5 °C 6.6 °C 1016.7 hPa SSO 19 km/h 33.8 km/h 38.1% 0.0 mm
13:14 21.6 °C 6.7 °C 1016.5 hPa SSO 16.9 km/h 33.3 km/h 38% 0.0 mm
13:19 21.6 °C 6.5 °C 1016.5 hPa Sur 15.6 km/h 33.8 km/h 37.6% 0.0 mm
13:24 21.7 °C 6.7 °C 1016.5 hPa SSO 18.3 km/h 33.8 km/h 38% 0.0 mm
13:29 21.8 °C 6.3 °C 1016.2 hPa SSO 19.8 km/h 33.3 km/h 36.6% 0.0 mm
13:34 21.9 °C 6.4 °C 1016.2 hPa SSO 18.1 km/h 33.8 km/h 36.7% 0.0 mm
13:39 21.9 °C 6.3 °C 1016.2 hPa SSO 17.2 km/h 29.6 km/h 36.2% 0.0 mm
13:44 22.1 °C 6.3 °C 1016.0 hPa SSO 17.2 km/h 37 km/h 36% 0.0 mm
13:49 22 °C 6.2 °C 1016.0 hPa SSO 17.2 km/h 37 km/h 35.8% 0.0 mm
13:54 22.1 °C 6.3 °C 1016.0 hPa SSO 19 km/h 33.8 km/h 36% 0.0 mm
13:59 22.1 °C 6.2 °C 1015.8 hPa SSO 20.1 km/h 33.8 km/h 35.8% 0.0 mm
14:04 22.2 °C 6 °C 1015.8 hPa SSO 18.2 km/h 37 km/h 35.1% 0.0 mm
14:09 22.2 °C 6 °C 1015.8 hPa SSO 17.2 km/h 48.1 km/h 35% 0.0 mm
14:14 22.2 °C 6 °C 1015.5 hPa SSO 20.6 km/h 48.3 km/h 35% 0.0 mm
14:19 22.2 °C 6.2 °C 1015.5 hPa SSO 22.5 km/h 37 km/h 35.5% 0.0 mm
14:24 22.2 °C 6.1 °C 1015.5 hPa SSO 20.3 km/h 33.8 km/h 35.2% 0.0 mm
14:29 22.3 °C 6.2 °C 1015.3 hPa SSO 19 km/h 33.8 km/h 35.2% 0.0 mm
14:34 22.4 °C 6.2 °C 1015.3 hPa SSO 17.2 km/h 32.2 km/h 35% 0.0 mm
14:39 22.3 °C 6.1 °C 1015.3 hPa SSO 16.1 km/h 35.2 km/h 34.9% 0.0 mm
14:44 22.3 °C 6.1 °C 1015.1 hPa SSO 18.3 km/h 35.4 km/h 34.9% 0.0 mm
14:49 22.4 °C 5.7 °C 1015.1 hPa SSO 19.8 km/h 29.6 km/h 33.8% 0.0 mm
14:54 22.6 °C 5.6 °C 1015.1 hPa SSO 18.2 km/h 29.8 km/h 33.4% 0.0 mm
14:59 22.6 °C 5.5 °C 1014.9 hPa SSO 17.2 km/h 31.5 km/h 33.1% 0.0 mm
15:04 22.5 °C 5.3 °C 1014.9 hPa SSO 17.2 km/h 32.2 km/h 32.8% 0.0 mm
15:09 22.6 °C 5.3 °C 1014.9 hPa SSO 17.2 km/h 30.6 km/h 32.5% 0.0 mm
15:14 22.6 °C 4.6 °C 1014.5 hPa SSO 17.7 km/h 31.5 km/h 31.1% 0.0 mm
15:19 22.7 °C 4.3 °C 1014.5 hPa SSO 18 km/h 34.3 km/h 30.1% 0.0 mm
15:24 22.7 °C 4.1 °C 1014.5 hPa Sur 19.1 km/h 34.3 km/h 29.7% 0.0 mm
15:29 22.7 °C 3.7 °C 1014.4 hPa SSO 19.8 km/h 33.8 km/h 29% 0.0 mm
15:34 22.7 °C 3.5 °C 1014.4 hPa SSO 19.8 km/h 32.2 km/h 28.5% 0.0 mm
15:39 22.8 °C 3.3 °C 1014.5 hPa SSO 19.8 km/h 32.2 km/h 28% 0.0 mm
15:44 22.8 °C 3.3 °C 1014.5 hPa SSO 18.3 km/h 33.3 km/h 28% 0.0 mm
15:49 22.9 °C 3.3 °C 1014.5 hPa SSO 17.2 km/h 33.8 km/h 28% 0.0 mm
15:54 22.8 °C 3 °C 1014.6 hPa SSO 16.5 km/h 36.2 km/h 27.3% 0.0 mm
15:59 22.8 °C 3.1 °C 1014.6 hPa SSO 16.1 km/h 37 km/h 27.6% 0.0 mm
16:04 22.8 °C 3.1 °C 1014.6 hPa SSO 17.4 km/h 35.2 km/h 27.5% 0.0 mm
16:09 22.8 °C 3 °C 1014.6 hPa SSO 18 km/h 35.4 km/h 27.3% 0.0 mm
16:14 22.8 °C 2.8 °C 1014.4 hPa SSO 18 km/h 32.2 km/h 27% 0.0 mm
16:19 22.8 °C 2.8 °C 1014.4 hPa SSO 18 km/h 30.6 km/h 27% 0.0 mm
16:24 22.8 °C 2.8 °C 1014.5 hPa SSO 15.5 km/h 29.6 km/h 27% 0.0 mm
16:29 22.7 °C 2.8 °C 1014.5 hPa SSO 14 km/h 37.8 km/h 27% 0.0 mm
16:34 22.7 °C 2.7 °C 1014.5 hPa SSO 18.7 km/h 37 km/h 27% 0.0 mm
16:39 22.7 °C 2.7 °C 1014.5 hPa SSO 21.7 km/h 35.4 km/h 27.1% 0.0 mm
16:44 22.6 °C 2.7 °C 1014.5 hPa SSO 17.4 km/h 33.8 km/h 27.1% 0.0 mm
16:49 22.6 °C 2.9 °C 1014.5 hPa SSO 14.8 km/h 24.1 km/h 27.5% 0.0 mm
16:54 22.5 °C 2.9 °C 1014.6 hPa SSO 14.1 km/h 30.9 km/h 27.8% 0.0 mm
16:59 22.4 °C 2.6 °C 1014.6 hPa SSO 13.7 km/h 33.3 km/h 27.3% 0.0 mm
17:04 22.4 °C 2.6 °C 1014.6 hPa SSO 15.2 km/h 33.8 km/h 27.4% 0.0 mm
17:09 22.3 °C 2.6 °C 1014.6 hPa SSO 16.1 km/h 22.5 km/h 27.5% 0.0 mm
17:14 22.2 °C 2.6 °C 1014.6 hPa SSO 14.8 km/h 24.1 km/h 27.5% 0.0 mm
17:19 22.1 °C 2.5 °C 1014.6 hPa SSO 14 km/h 26.2 km/h 27.6% 0.0 mm
17:24 22 °C 2.6 °C 1014.6 hPa SSO 15 km/h 25.9 km/h 27.9% 0.0 mm
17:29 21.9 °C 2.5 °C 1014.6 hPa SSO 15.6 km/h 26.2 km/h 28% 0.0 mm
17:34 21.8 °C 2.4 °C 1014.6 hPa SSO 15.9 km/h 28.2 km/h 28% 0.0 mm
17:39 21.7 °C 2.4 °C 1014.6 hPa SSO 16.1 km/h 27.4 km/h 28% 0.0 mm
17:44 21.6 °C 2.3 °C 1014.6 hPa SSO 15.8 km/h 24.1 km/h 28% 0.0 mm
17:49 21.4 °C 2.4 °C 1014.6 hPa SO 15.6 km/h 22.5 km/h 28.6% 0.0 mm
17:54 21.2 °C 2.5 °C 1014.9 hPa SO 12.7 km/h 18.5 km/h 29% 0.0 mm
17:59 21.1 °C 2.5 °C 1014.9 hPa SO 11.1 km/h 21.7 km/h 29.4% 0.0 mm
18:04 20.9 °C 2.7 °C 1014.9 hPa SO 11.8 km/h 22.5 km/h 30% 0.0 mm
18:09 20.8 °C 2.6 °C 1015.3 hPa SO 12.2 km/h 20.9 km/h 30% 0.0 mm
18:14 20.8 °C 2.6 °C 1015.3 hPa Oeste 10.8 km/h 19.3 km/h 30.2% 0.0 mm
18:19 20.6 °C 2.9 °C 1015.3 hPa NO 10 km/h 14.5 km/h 31.2% 0.0 mm
18:24 20.3 °C 3.2 °C 1015.9 hPa NO 8.5 km/h 12.9 km/h 32.4% 0.0 mm
18:29 20 °C 3.2 °C 1015.9 hPa OSO 7.6 km/h 16.7 km/h 33% 0.0 mm
18:34 20 °C 3.2 °C 1015.9 hPa Oeste 7.6 km/h 16.1 km/h 33% 0.0 mm
18:39 20.1 °C 3.3 °C 1016.3 hPa Oeste 7.6 km/h 16.1 km/h 33% 0.0 mm
18:44 20.1 °C 3.6 °C 1016.3 hPa ONO 6.9 km/h 23.3 km/h 33.6% 0.0 mm
18:49 20.3 °C 4.3 °C 1016.3 hPa ONO 6.5 km/h 27 km/h 35% 0.0 mm
18:54 20.4 °C 4.5 °C 1016.3 hPa ONO 8.7 km/h 27.4 km/h 35.4% 0.0 mm
18:59 20.4 °C 4.8 °C 1016.3 hPa ONO 10 km/h 22.5 km/h 36% 0.0 mm
19:04 20.4 °C 4.8 °C 1016.3 hPa ONO 10.7 km/h 22.5 km/h 36% 0.0 mm
19:09 20.2 °C 5.1 °C 1016.5 hPa ONO 11.1 km/h 20.9 km/h 37.2% 0.0 mm
19:14 19.9 °C 5.4 °C 1016.5 hPa NO 10.4 km/h 22.5 km/h 38.4% 0.0 mm
19:19 19.7 °C 5.5 °C 1016.5 hPa ONO 10 km/h 22.5 km/h 39.6% 0.0 mm
19:24 19.6 °C 5.6 °C 1016.7 hPa ONO 10.7 km/h 20.9 km/h 40% 0.0 mm
19:29 19.6 °C 5.6 °C 1016.7 hPa Oeste 11.1 km/h 17.7 km/h 39.9% 0.0 mm
19:34 19.8 °C 5.4 °C 1016.7 hPa Oeste 10.1 km/h 16.7 km/h 39% 0.0 mm
19:39 19.8 °C 5.4 °C 1017.1 hPa Oeste 9.5 km/h 18.5 km/h 39% 0.0 mm
19:44 19.8 °C 5.5 °C 1017.1 hPa ONO 9.5 km/h 19.3 km/h 39% 0.0 mm
19:49 19.8 °C 5.7 °C 1017.1 hPa ONO 9.5 km/h 16.1 km/h 39.7% 0.0 mm
19:54 19.7 °C 5.7 °C 1017.3 hPa ONO 8.8 km/h 14.5 km/h 40% 0.0 mm
19:59 19.7 °C 5.8 °C 1017.3 hPa NO 8.4 km/h 12.2 km/h 40.3% 0.0 mm
20:04 19.5 °C 5.8 °C 1017.3 hPa ONO 8.4 km/h 14.8 km/h 41% 0.0 mm
20:09 19.4 °C 5.8 °C 1017.5 hPa Oeste 8.4 km/h 22.5 km/h 41% 0.0 mm
20:14 19.4 °C 5.8 °C 1017.5 hPa Oeste 9.3 km/h 22.5 km/h 41% 0.0 mm
20:19 19.4 °C 5.8 °C 1017.5 hPa OSO 10 km/h 16.1 km/h 41% 0.0 mm
20:24 19.4 °C 5.8 °C 1017.5 hPa OSO 9 km/h 17.2 km/h 41% 0.0 mm
20:29 19.4 °C 5.8 °C 1017.5 hPa SO 8.4 km/h 19.3 km/h 41% 0.0 mm
20:34 19.3 °C 5.9 °C 1017.5 hPa OSO 8.6 km/h 19.3 km/h 41.5% 0.0 mm
20:39 19.3 °C 6 °C 1017.7 hPa OSO 8.7 km/h 14.5 km/h 42% 0.0 mm
20:44 19.2 °C 5.9 °C 1017.7 hPa Oeste 6.4 km/h 10 km/h 42% 0.0 mm
20:49 19.1 °C 6.1 °C 1017.7 hPa OSO 5 km/h 9.7 km/h 42.9% 0.0 mm
20:54 18.9 °C 6 °C 1018.1 hPa OSO 4.8 km/h 11.1 km/h 43% 0.0 mm
20:59 18.7 °C 5.9 °C 1018.1 hPa OSO 4.7 km/h 11.3 km/h 43% 0.0 mm
21:04 18.4 °C 5.7 °C 1018.1 hPa Sur 3.5 km/h 8 km/h 43.4% 0.0 mm
21:09 18 °C 5.8 °C 1018.1 hPa Sur 2.9 km/h 8 km/h 44.6% 0.0 mm
21:14 17.8 °C 5.7 °C 1018.1 hPa SSE 3.1 km/h 8.4 km/h 45.1% 0.0 mm
21:19 17.7 °C 5.9 °C 1018.1 hPa SSE 3.2 km/h 10 km/h 46% 0.0 mm
21:24 17.6 °C 5.8 °C 1018.4 hPa Sur 4.8 km/h 9.7 km/h 46% 0.0 mm
21:29 17.6 °C 5.9 °C 1018.4 hPa Sur 5.8 km/h 8.4 km/h 46% 0.0 mm
21:34 17.7 °C 5.9 °C 1018.4 hPa Sur 5.3 km/h 10 km/h 46% 0.0 mm
21:39 17.6 °C 5.8 °C 1018.5 hPa Sur 5 km/h 9.7 km/h 46% 0.0 mm
21:44 17.7 °C 5.9 °C 1018.5 hPa Sur 5.9 km/h 9.5 km/h 46% 0.0 mm
21:49 17.7 °C 5.9 °C 1018.5 hPa Sur 6.5 km/h 9.7 km/h 46% 0.0 mm
21:54 17.6 °C 5.9 °C 1018.5 hPa Sur 5.3 km/h 8 km/h 46% 0.0 mm
21:59 17.6 °C 5.8 °C 1018.5 hPa SSO 4.7 km/h 8 km/h 46% 0.0 mm
22:04 17.6 °C 5.8 °C 1018.5 hPa Sur 4.1 km/h 10.3 km/h 46% 0.0 mm
22:09 17.6 °C 5.8 °C 1018.5 hPa Sur 3.9 km/h 11.3 km/h 46% 0.0 mm
22:14 17.6 °C 5.8 °C 1018.5 hPa SSO 5.5 km/h 11.3 km/h 46% 0.0 mm
22:19 17.6 °C 5.8 °C 1018.5 hPa SSO 6.5 km/h 9.7 km/h 46% 0.0 mm
22:24 17.6 °C 5.8 °C 1018.7 hPa SSO 6.1 km/h 9.5 km/h 45.8% 0.0 mm
22:29 17.5 °C 5.8 °C 1018.7 hPa SO 5.8 km/h 9.7 km/h 46% 0.0 mm
22:34 17.5 °C 5.7 °C 1018.7 hPa SO 6.2 km/h 9.7 km/h 46% 0.0 mm
22:39 17.4 °C 5.6 °C 1019.0 hPa OSO 6.5 km/h 9.7 km/h 46% 0.0 mm
22:44 17.2 °C 5.8 °C 1019.0 hPa OSO 6.1 km/h 8 km/h 46.9% 0.0 mm
22:49 17.1 °C 5.8 °C 1019.0 hPa OSO 5.8 km/h 8 km/h 47.3% 0.0 mm
22:54 16.8 °C 5.9 °C 1019.3 hPa NO 5.1 km/h 8 km/h 48.8% 0.0 mm
22:59 16.3 °C 6 °C 1019.3 hPa Oeste 4.7 km/h 8 km/h 50.6% 0.0 mm
23:04 15.8 °C 6.1 °C 1019.3 hPa OSO 4.7 km/h 8 km/h 52.2% 0.0 mm
23:09 15.7 °C 6.1 °C 1019.4 hPa SSO 4.6 km/h 8.4 km/h 53% 0.0 mm
23:14 15.5 °C 6 °C 1019.4 hPa Este 4.7 km/h 10 km/h 53.1% 0.0 mm
23:19 15.3 °C 6 °C 1019.4 hPa SE 4.7 km/h 10 km/h 54% 0.0 mm
23:24 15.1 °C 5.8 °C 1019.6 hPa SSE 5.7 km/h 11.1 km/h 54% 0.0 mm
23:29 14.9 °C 5.7 °C 1019.6 hPa SE 6.5 km/h 11.3 km/h 54% 0.0 mm
23:34 14.9 °C 5.7 °C 1019.6 hPa SSE 6.5 km/h 11.3 km/h 54% 0.0 mm
23:39 14.8 °C 5.8 °C 1019.8 hPa SSE 6.5 km/h 9.3 km/h 55% 0.0 mm
23:44 14.8 °C 5.8 °C 1019.8 hPa SSE 6 km/h 9.7 km/h 55% 0.0 mm
23:49 14.8 °C 5.7 °C 1019.8 hPa SSE 5.8 km/h 8.7 km/h 54.6% 0.0 mm
23:54 14.9 °C 5.7 °C 1020.1 hPa SSE 5.8 km/h 9.7 km/h 54% 0.0 mm
23:59 15 °C 5.7 °C 1020.1 hPa Sur 5.8 km/h 9.7 km/h 54% 0.0 mm
Murcia-Puente Tocinos, España
Compliments of Weather Underground - 3 mb

La estación de MeteoMurcia.com, publica sus datos en los siguientes proyectos:

Weather Underground PWS IMURCIAP2 Meteoclimatic www.awekas.at

W3Counter
Web Analytics